VTSSWMKP

Guest
Details From VTSS - Songkhla Hat Yai Intl
To WMKP - Penang Intl
Flight Number -
Tags generated
Created
Modified
Stats Distance 99 nm / 183 km
Max Altitude 8,600 ft / 2,621 m
Waypoints 3
Social Downloads 2
Likes 0
Share VATSIM

Download

Looking for another format? Having issues loading an existing format? Contact us
Advertisement - Login to hide

Notes

Basic altitude profile: - Ascent Rate: 2500ft/min - Ascent Speed: 250kts - Cruise Altitude: 8000ft - Cruise Speed: 420kts - Descent Rate: 1500ft/min - Descent Speed: 250kts Options: - Use NATs: yes - Use PACOTS: yes - Use low airways: yes - Use high airways: yes

Route

VTSS TAMOS WMKP

ID Type Via Altitude Latitude Longitude Leg Dist Tot Dist Heading (true) Name
O VTSS APT - 0 ft / 0 m 6.93251˚ 100.39298˚ - 0 nm - Songkhla Hat Yai Intl
TAMOS FIX - 8,600 ft / 2,621 m 6.52944˚ 100.39472˚ 24 nm 24 nm 180° / 180° -
O WMKP APT - 0 ft / 0 m 5.29714˚ 100.27686˚ 74 nm 98 nm 185° / 185° Penang Intl

Altitude Profile

Advertisement - Login to hide

VTSS

Details ICAO VTSS (HDY)
Name Songkhla Hat Yai Intl
Region Thailand
Timezone Asia/Bangkok (UTC+7.0)
Stats Elevation 90 ft / 27 m (AMSL)
Location 6.932513° 100.392977°
Runways 1
Magnetic Variation 0.259° W

METAR

VTSS 161630Z 29002KT 9999 FEW020 SCT100 25/22 Q1013 NOSIG

Decode

TAF

TAF VTSS 161100Z 1612/1712 06004KT 9999 FEW020 TEMPO 1613/1618 VRB15KT 3000 TSRA FEW016CB SCT018 BKN100 TEMPO 1703/1709 VRB15KT 3000 TSRA FEW016CB SCT018 BKN100

Decode

Departure Runways

ID Width Length Bearing (true) Bearing (mag) Surface Threshold Offset Overrun Length
08 148 ft / 45 m 9,984 ft / 3,043 m 82.94° 83.20° Asphalt 0 ft / 0 m 197 ft / 60 m
26 148 ft / 45 m 9,984 ft / 3,043 m 262.95° 263.21° Asphalt 0 ft / 0 m 197 ft / 60 m

WMKP

Details ICAO WMKP (PEN)
Name Penang Intl
Region Malaysia (Peninsular Malaysia)
Timezone Asia/Kuala_Lumpur (UTC+8.0)
Stats Elevation 11 ft / 3 m (AMSL)
Location 5.297141° 100.276865°
Runways 1
Magnetic Variation 0.206° W

METAR

WMKP 161630Z 00000KT 8000 FEW017CB SCT140 BKN270 26/24 Q1012 RETS NOSIG

Decode

TAF

TAF WMKP 161100Z 1612/1712 30005KT 9000 FEW025 SCT140 BKN270 TEMPO 1612/1615 6000 -TSRA FEW012 FEW017CB SCT024

Decode

Destination Runways

ID Width Length Bearing (true) Bearing (mag) Surface Threshold Offset Overrun Length
04 150 ft / 46 m 11,042 ft / 3,366 m 42.02° 42.23° Asphalt 0 ft / 0 m 205 ft / 62 m
22 150 ft / 46 m 11,042 ft / 3,366 m 222.02° 222.23° Asphalt 0 ft / 0 m 205 ft / 62 m

Approach Navaids

Runway Type Ident Frequency Range Bearing (true) Bearing (mag) Slope Elevation
04 Localiser IPG 109.90 MHz 18 nm / 33 km 42.88° 43.09° - 12 ft / 4 m (AMSL)
04 Glidescope IPG 109.90 MHz 10 nm / 19 km 42.02° 42.22° 3.00° 11 ft / 3 m (AMSL)
04 DME IPG 109.90 MHz 18 nm / 33 km - - - 11 ft / 3 m (AMSL)